Terminal Aerodrome Forecast
Issued by NWS Charleston, WV

Current Version | Previous Version | Graphics & Text | Print | Product List | Glossary On
Versions: 1 2 3 4 5 6 7 8 9 10 11 12 13 14 15 16 17 18 19 20 21 22 23 24 25 26 27
000
FTUS41 KRLX 241139
TAFHTS
TAF
KHTS 241139Z 2412/2512 25004KT 6SM BR BKN005 OVC050
     FM241300 25004KT P6SM SCT010 OVC050
     FM241400 25004KT P6SM SCT130
     FM241700 25008KT P6SM SCT050
     FM250000 29004KT P6SM SCT050=

USA.gov is the U.S. government's official web portal to all federal, state and local government web resources and services.